Aérodrome :
LOGIN :

S'inscrire | Disclaimer

   EN    FR    IT 

 










Légende :    VFR   VFR Marginal   IFR   IFR Intensif   IFR Très Intensif
Visi : 
Plafond : 
>= 8 km
>= 3000ft
5 à 8 km
1000 à 3000 ft
1500m à 5 km
500 à 1000 ft
800 à 1500m
200 à 500 ft
< 800m
< 200 ft
Symboles :   Orages  Brouillard  Fortes neiges  Fortes précipitations  Vent > 20 kt
SIGMETs :   Divers  Orages  Givrage  Turbulence  Onde Orograph.  Cendres Volcan.







- Altitude de l'aérodrome : 65 ft
- Code IATA : PMO


LICJ - Palermo Punta Raisi

DERNIER METAR :
  • 222020Z 25007KT CAVOK 25/24 Q1012

METARs EXPIRÉS :
  • 221950Z 23013KT CAVOK 26/24 Q1013
  • 221920Z 10005KT 070V160 CAVOK 26/23 Q1012
  • 221850Z 05007KT 020V080 9000 FEW010 26/23 Q1012
  • 221820Z 04008KT CAVOK 26/23 Q1012
  • 221750Z 04008KT CAVOK 26/23 Q1013

TAF TAF LICJ
Valide du 22 à 18h jusqu'au 23 à 18h UTC


221700Z 2218/2318 02012KT 9999 FEW030
BECMG 2218/2220 VRB04KT
BECMG 2306/2308 32015G25KT
Pas de NOTAMs connus pour ce terrain.
1 SIGMET publié pour la FIR Roma (LIRR) :
 
Turbulence forte
LIRR SIGMET 5 VALID 222000/222300 LIIB
LIRR ROMA FIR SEV TURB FCST WI N3842 E00836 - N4015 E01539 - N3859 E01625 - N3852 E01712 - N3853 E01855 - N3810 E01853 - N3706 E01125 - N3728 E01129 - N3842 E00836 FL030/130 STNR NC=



MET'MAP, la Météo Aéronautique d'un coup d'oeil ! - Copyright ORBIFLY Décembre 2007 - Disclaimer

ORBIFLY MET'MAP TEAM :

Programmation & Développement : Alexandra Zaïnal
Conception & Développement : Baudouin d'Aumeries
Co-Programmation & Développement : Marc-Olivier Méhu
Soutien technique & logistique : Manuel Goepfert

Contact : metmap@orbifly.com




SOURCES & CREDITS :

   NOAA